Zhetygen Airport

Jump to: basic info | weather | comments

Related pages: nearby airports | nearby navaids

Basic information (top)

Location: lon 43.733101, lat 77.119400, elev 1,638 ft / 499 m msl
Status: small_airport

Weather (top)

Current conditions for Almaty Airport 23nm (43km) S (rec'd 2014/04/17 15:00Z):

UAAA 171500Z 16003MPS 110V180 1500 R05L/P2000 R05R/P2000 FU FEW100 BKN200 08/M01 Q1022 88CLRD65 NOSIG

Airport forecast for Almaty Airport 23nm (43km) S (rec'd 2014/04/17 12:18Z):

TAF TAF UAAA 171100Z 1712/1812 14005MPS 3000 BR FU NSC TX17/1809Z TN01/1801Z 
      TEMPO 1714/1802 1000 
      BECMG 1802/1803 04007MPS 9999 NSW

Latest comments (top)

No comments yet for Zhetygen Airport

More... (top)

See also NOTAMs and nearby airports and navaids, or visit the Zhetygen Airport page at the main OurAirports website..